CheckWX is a tool to help pilots better visualize weather data.  It is not intended as a substitute for an official pre-flight weather briefing.

21:04:19 UTC

EGPB METAR
Sumburgh Airport
Lerwick, United Kingdom
Current

44 mins ago

EGPB 232020Z 36003KT 9999 FEW026 08/07 Q1005
Observed
May-23 @ 20:20 UTC
Wind
  • 360° at 3 KTS
Visibility
10,000+ meters
Flight Rules
VFR
Cloud Levels
  • Few at 2,600' AGL
Temperature
C / 46°F
Dewpoint
C / 45°F
Humidity
93%
Altimeter
29.68" Hg
Pressure
1004.92 hPa
Previous

2 hours ago

EGPB 231920Z 03004KT 9999 FEW015 SCT024 10/08 Q1004
Observed
May-23 @ 19:20 UTC
Wind
  • 030° at 4 KTS
Visibility
10,000+ meters
Flight Rules
VFR
Cloud Levels
  • Few at 1,500' AGL
  • Scattered at 2,400' AGL
Temperature
10°C / 50°F
Dewpoint
C / 46°F
Humidity
88%
Altimeter
29.65" Hg
Pressure
1003.92 hPa
Previous

2 hours ago

EGPB 231850Z 04005KT 9999 FEW015 SCT024 10/08 Q1004
Observed
May-23 @ 18:50 UTC
Wind
  • 040° at 5 KTS
Visibility
10,000+ meters
Flight Rules
VFR
Cloud Levels
  • Few at 1,500' AGL
  • Scattered at 2,400' AGL
Temperature
10°C / 50°F
Dewpoint
C / 46°F
Humidity
88%
Altimeter
29.65" Hg
Pressure
1003.92 hPa